Time;durP1;ratioP1;P1;durP2;ratioP2;P2;SDS_P1;SDS_P2;PMS_P1;PMS_P2;Temp;Humidity;BMP_temperature;BMP_pressure;BME280_temperature;BME280_humidity;BME280_pressure;Samples;Min_cycle;Max_cycle;Signal;HPM_P1;HPM_P2
2022/03/31 14:01:13;;;;;;;;;;;10.30;66.90;;;;;;4984438;28;19930;-82
2022/03/31 14:03:43;;;;;;;;;;;9.10;65.50;;;;;;4950741;29;19927;-84
2022/03/31 14:06:14;;;;;;;;;;;9.70;66.90;;;;;;4948124;29;19930;-83
2022/03/31 14:08:52;;;;;;;;;;;10.00;64.60;;;;;;4949484;29;19937;-81
2022/03/31 14:11:30;;;;;;;;;;;10.20;64.30;;;;;;4965869;28;19937;-81
2022/03/31 14:13:59;;;;;;;;;;;11.40;64.00;;;;;;4968438;28;19952;-80
2022/03/31 14:16:29;;;;;;;;;;;10.60;64.00;;;;;;4963422;28;19926;-80
2022/03/31 14:18:59;;;;;;;;;;;10.50;61.80;;;;;;4985544;28;19926;-81
2022/03/31 14:21:27;;;;;;;;;;;10.50;61.80;;;;;;4952297;28;19938;-80
2022/03/31 14:23:55;;;;;;;;;;;10.80;60.60;;;;;;4969415;28;20701;-80
2022/03/31 14:26:23;;;;;;;;;;;10.90;60.00;;;;;;4954200;29;19931;-81
2022/03/31 14:28:53;;;;;;;;;;;10.10;61.40;;;;;;4967988;28;19957;-81
2022/03/31 14:31:25;;;;;;;;;;;11.20;61.30;;;;;;4952523;29;19949;-83
2022/03/31 14:34:04;;;;;;;;;;;11.20;62.70;;;;;;4967310;29;19950;-80
2022/03/31 14:36:34;;;;;;;;;;;10.90;57.30;;;;;;4948770;29;19926;-83
2022/03/31 14:39:05;;;;;;;;;;;10.80;58.00;;;;;;4951029;28;20006;-83
2022/03/31 14:41:34;;;;;;;;;;;11.10;59.30;;;;;;4948501;28;20151;-82
2022/03/31 14:44:02;;;;;;;;;;;11.40;59.90;;;;;;4957454;28;19941;-82
2022/03/31 14:46:35;;;;;;;;;;;11.60;60.20;;;;;;4973779;28;19930;-84
2022/03/31 14:49:08;;;;;;;;;;;11.90;60.40;;;;;;4988107;28;19926;-88
2022/03/31 14:51:39;;;;;;;;;;;11.00;60.00;;;;;;4969323;29;19932;-82
2022/03/31 14:54:09;;;;;;;;;;;12.00;58.10;;;;;;4952446;29;19914;-88
2022/03/31 14:56:41;;;;;;;;;;;11.80;57.70;;;;;;4951101;29;19926;-82
2022/03/31 14:59:12;;;;;;;;;;;12.10;57.00;;;;;;4974942;28;19926;-84
2022/03/31 15:01:44;;;;;;;;;;;12.00;57.20;;;;;;4966410;28;19930;-83
2022/03/31 15:04:16;;;;;;;;;;;12.10;57.30;;;;;;4951623;28;19926;-83
2022/03/31 15:06:45;;;;;;;;;;;12.20;55.50;;;;;;4967217;28;19940;-82
2022/03/31 15:14:47;;;;;;;;;;;12.50;57.30;;;;;;4967596;28;19932;-82
2022/03/31 15:17:16;;;;;;;;;;;12.40;57.10;;;;;;4985769;28;19936;-82
2022/03/31 15:19:46;;;;;;;;;;;12.10;56.10;;;;;;4994186;28;19937;-84
2022/03/31 15:22:14;;;;;;;;;;;12.10;55.40;;;;;;4983426;28;19937;-83
2022/03/31 15:24:43;;;;;;;;;;;11.00;54.40;;;;;;4985712;28;19934;-82
2022/03/31 15:27:11;;;;;;;;;;;12.30;55.20;;;;;;4971551;28;19937;-86
2022/03/31 15:29:41;;;;;;;;;;;12.20;56.80;;;;;;4988028;28;19932;-82
2022/03/31 15:32:16;;;;;;;;;;;12.20;55.30;;;;;;4956544;28;20318;-87
2022/03/31 15:34:45;;;;;;;;;;;12.30;54.30;;;;;;4943077;29;19929;-84
2022/03/31 15:37:13;;;;;;;;;;;12.40;53.10;;;;;;4955567;29;19931;-84
2022/03/31 15:39:43;;;;;;;;;;;11.10;53.90;;;;;;4957146;28;19930;-84
2022/03/31 15:42:15;;;;;;;;;;;12.60;54.20;;;;;;4976034;28;19922;-84
2022/03/31 15:44:43;;;;;;;;;;;12.40;54.00;;;;;;4960085;28;19930;-83
2022/03/31 15:47:12;;;;;;;;;;;12.10;55.40;;;;;;4993969;28;19930;-81
2022/03/31 15:49:40;;;;;;;;;;;11.50;53.90;;;;;;4978709;28;19925;-82
2022/03/31 15:52:09;;;;;;;;;;;10.70;53.50;;;;;;4959194;29;19926;-82
2022/03/31 15:54:38;;;;;;;;;;;10.50;52.90;;;;;;4974700;29;19935;-83
2022/03/31 15:57:06;;;;;;;;;;;10.40;53.00;;;;;;4955819;29;19930;-85
2022/03/31 15:59:35;;;;;;;;;;;10.20;53.10;;;;;;4972318;28;19931;-84
2022/03/31 16:02:04;;;;;;;;;;;10.50;54.30;;;;;;4952341;28;19926;-82
2022/03/31 16:04:34;;;;;;;;;;;10.80;54.00;;;;;;4934912;29;19940;-82
2022/03/31 16:07:05;;;;;;;;;;;11.00;54.20;;;;;;4934479;29;19926;-82
2022/03/31 16:09:36;;;;;;;;;;;11.00;53.40;;;;;;4965824;28;19934;-82
2022/03/31 16:12:05;;;;;;;;;;;10.70;53.10;;;;;;4987594;28;19930;-82
2022/03/31 16:14:33;;;;;;;;;;;9.70;54.20;;;;;;4969768;28;19936;-82
2022/03/31 16:17:01;;;;;;;;;;;10.40;54.00;;;;;;4984870;28;20474;-82
2022/03/31 16:19:29;;;;;;;;;;;10.30;52.70;;;;;;4987931;28;19937;-82
2022/03/31 16:21:58;;;;;;;;;;;10.60;53.30;;;;;;4970033;28;19926;-80
2022/03/31 16:24:26;;;;;;;;;;;10.70;52.70;;;;;;4952552;29;19930;-83
2022/03/31 16:26:55;;;;;;;;;;;10.60;53.30;;;;;;4967016;28;19940;-83
2022/03/31 16:29:23;;;;;;;;;;;10.50;53.50;;;;;;4955200;28;19926;-84
2022/03/31 16:31:51;;;;;;;;;;;10.20;53.80;;;;;;4990310;28;19937;-82
2022/03/31 16:34:20;;;;;;;;;;;8.50;54.00;;;;;;4956450;29;19927;-84
2022/03/31 16:36:48;;;;;;;;;;;10.30;54.20;;;;;;4970455;28;19941;-84
2022/03/31 16:39:17;;;;;;;;;;;10.50;53.90;;;;;;4971801;28;19930;-83
2022/03/31 16:41:46;;;;;;;;;;;11.00;53.80;;;;;;4975499;28;19926;-87
2022/03/31 16:44:23;;;;;;;;;;;11.60;53.60;;;;;;4982868;28;20221;-85
2022/03/31 16:46:53;;;;;;;;;;;11.90;53.20;;;;;;4974548;28;19930;-84
2022/03/31 16:49:22;;;;;;;;;;;12.00;51.90;;;;;;4973214;28;19930;-84
2022/03/31 16:51:52;;;;;;;;;;;12.20;52.70;;;;;;4971196;28;19930;-83
2022/03/31 16:54:21;;;;;;;;;;;12.00;50.90;;;;;;4957012;28;19930;-84
2022/03/31 16:56:51;;;;;;;;;;;11.60;51.30;;;;;;4957478;28;19936;-84
2022/03/31 16:59:20;;;;;;;;;;;10.60;51.60;;;;;;4979444;28;19932;-84
2022/03/31 17:01:49;;;;;;;;;;;10.20;52.80;;;;;;4955552;29;19941;-83
2022/03/31 17:04:17;;;;;;;;;;;9.90;55.20;;;;;;4939546;29;19933;-84
2022/03/31 17:06:46;;;;;;;;;;;9.50;54.30;;;;;;4939914;29;19938;-84
2022/03/31 17:09:17;;;;;;;;;;;9.60;55.60;;;;;;4972932;29;19926;-83
2022/03/31 17:11:47;;;;;;;;;;;8.70;57.60;;;;;;4988734;28;19931;-83
2022/03/31 17:14:15;;;;;;;;;;;9.80;58.10;;;;;;4956327;29;19938;-85
2022/03/31 17:16:48;;;;;;;;;;;10.20;61.00;;;;;;4971438;28;19930;-83
2022/03/31 17:19:18;;;;;;;;;;;10.20;59.70;;;;;;4991461;28;19929;-82
2022/03/31 17:21:47;;;;;;;;;;;9.30;59.80;;;;;;4973999;28;19927;-86
2022/03/31 17:24:15;;;;;;;;;;;9.00;61.50;;;;;;4973428;28;19926;-83
2022/03/31 17:26:45;;;;;;;;;;;8.60;60.60;;;;;;4971473;28;19934;-82
2022/03/31 17:29:16;;;;;;;;;;;8.30;60.90;;;;;;4989438;28;19930;-82
2022/03/31 17:31:44;;;;;;;;;;;8.20;61.30;;;;;;4971227;28;19930;-83
2022/03/31 17:34:14;;;;;;;;;;;8.30;62.30;;;;;;4970457;28;19926;-83
2022/03/31 17:36:42;;;;;;;;;;;8.40;62.40;;;;;;4968295;29;20028;-84
2022/03/31 17:39:12;;;;;;;;;;;8.20;63.90;;;;;;4970252;29;19930;-83
2022/03/31 17:41:39;;;;;;;;;;;8.30;63.40;;;;;;4990257;28;19942;-82
2022/03/31 17:44:11;;;;;;;;;;;8.10;66.10;;;;;;4973456;28;19926;-83
2022/03/31 17:46:39;;;;;;;;;;;8.10;65.20;;;;;;4972463;28;19936;-86
2022/03/31 17:49:12;;;;;;;;;;;8.30;67.60;;;;;;4988687;28;19933;-84
2022/03/31 17:51:45;;;;;;;;;;;8.40;66.90;;;;;;4986248;28;22918;-83
2022/03/31 17:54:15;;;;;;;;;;;8.10;68.50;;;;;;4967501;28;19935;-83
2022/03/31 17:56:44;;;;;;;;;;;8.20;66.30;;;;;;4982282;28;19941;-83
2022/03/31 17:59:12;;;;;;;;;;;8.30;66.80;;;;;;4972822;28;19936;-82
2022/03/31 18:01:42;;;;;;;;;;;6.70;66.00;;;;;;4957769;28;19930;-83
2022/03/31 18:04:11;;;;;;;;;;;8.10;67.20;;;;;;4972853;28;20275;-82
2022/03/31 18:06:41;;;;;;;;;;;8.10;67.30;;;;;;4972818;28;19933;-83
2022/03/31 18:09:09;;;;;;;;;;;7.70;67.40;;;;;;4957035;28;19936;-83
2022/03/31 18:11:37;;;;;;;;;;;7.30;68.30;;;;;;4972345;28;19930;-84
2022/03/31 18:14:10;;;;;;;;;;;7.20;69.50;;;;;;4990874;28;19926;-84
2022/03/31 18:16:39;;;;;;;;;;;6.80;69.60;;;;;;4971640;28;19922;-84
2022/03/31 18:19:07;;;;;;;;;;;6.60;70.20;;;;;;4967831;28;19936;-83
2022/03/31 18:21:38;;;;;;;;;;;6.50;72.10;;;;;;4983722;28;19940;-83
2022/03/31 18:24:06;;;;;;;;;;;6.00;72.10;;;;;;4969866;28;19941;-83
2022/03/31 18:26:35;;;;;;;;;;;6.00;69.90;;;;;;4969813;28;19930;-82
2022/03/31 18:29:04;;;;;;;;;;;5.80;71.50;;;;;;4624358;28;9999847;-82
2022/03/31 18:34:22;;;;;;;;;;;5.60;70.30;;;;;;4984888;28;19930;-83
2022/03/31 18:36:50;;;;;;;;;;;5.40;70.40;;;;;;4968984;29;19927;-82
2022/03/31 18:39:18;;;;;;;;;;;5.90;72.80;;;;;;4955854;28;19940;-83
2022/03/31 18:41:46;;;;;;;;;;;5.20;72.10;;;;;;4989249;28;19930;-83
2022/03/31 18:44:21;;;;;;;;;;;4.40;72.50;;;;;;4989587;28;19922;-84
2022/03/31 18:46:50;;;;;;;;;;;5.10;72.20;;;;;;4955567;28;19945;-83
2022/03/31 18:49:18;;;;;;;;;;;5.10;72.60;;;;;;4970151;28;19953;-83
2022/03/31 18:51:46;;;;;;;;;;;4.90;74.50;;;;;;4968825;28;19926;-83
2022/03/31 18:54:18;;;;;;;;;;;4.90;74.20;;;;;;4987964;28;20291;-83
2022/03/31 18:56:47;;;;;;;;;;;4.00;73.60;;;;;;4954320;28;19932;-84
2022/03/31 18:59:15;;;;;;;;;;;4.90;75.90;;;;;;4960713;28;19937;-84
2022/03/31 19:01:44;;;;;;;;;;;4.70;76.20;;;;;;4950074;29;19926;-83
2022/03/31 19:04:13;;;;;;;;;;;4.90;75.20;;;;;;4959483;28;19927;-82
2022/03/31 19:06:57;;;;;;;;;;;3.90;74.60;;;;;;4966550;28;19979;-83
2022/03/31 19:09:28;;;;;;;;;;;6.60;76.40;;;;;;4967387;28;20291;-87
2022/03/31 19:11:58;;;;;;;;;;;4.80;75.90;;;;;;4951448;28;19937;-84
2022/03/31 19:14:26;;;;;;;;;;;6.30;76.80;;;;;;4968578;28;19930;-81
2022/03/31 19:17:15;;;;;;;;;;;4.80;77.80;;;;;;4966868;28;19930;-79
2022/03/31 19:19:43;;;;;;;;;;;5.00;77.90;;;;;;4967225;28;19926;-80
2022/03/31 19:22:11;;;;;;;;;;;4.60;77.00;;;;;;4968119;28;19945;-79
2022/03/31 19:24:39;;;;;;;;;;;4.60;77.60;;;;;;4987760;28;19926;-80
2022/03/31 19:27:07;;;;;;;;;;;4.60;79.10;;;;;;4985509;28;19926;-82
2022/03/31 19:29:35;;;;;;;;;;;4.50;79.90;;;;;;4970019;28;19930;-79
2022/03/31 19:32:09;;;;;;;;;;;4.50;79.80;;;;;;4986442;28;19930;-82
2022/03/31 19:34:36;;;;;;;;;;;4.50;79.10;;;;;;4987310;28;19941;-79
2022/03/31 19:37:06;;;;;;;;;;;4.40;79.60;;;;;;4969060;28;19926;-79
2022/03/31 19:39:53;;;;;;;;;;;4.40;79.90;;;;;;4974114;28;19932;-82
2022/03/31 19:42:21;;;;;;;;;;;4.40;80.00;;;;;;4925981;28;19936;-80
2022/03/31 19:44:49;;;;;;;;;;;4.30;80.70;;;;;;4990044;28;19932;-83
2022/03/31 19:47:17;;;;;;;;;;;4.20;80.30;;;;;;4988281;28;19931;-80
2022/03/31 19:49:46;;;;;;;;;;;4.20;81.00;;;;;;4972643;28;19930;-80
2022/03/31 19:52:18;;;;;;;;;;;4.30;81.00;;;;;;4972627;28;19926;-83
2022/03/31 19:54:47;;;;;;;;;;;4.20;81.50;;;;;;4970332;28;19930;-79
2022/03/31 19:57:15;;;;;;;;;;;4.20;82.50;;;;;;4987929;28;20295;-81
2022/03/31 20:00:22;;;;;;;;;;;4.20;83.30;;;;;;4948638;28;19930;-80
2022/03/31 20:02:54;;;;;;;;;;;4.30;83.50;;;;;;4983550;28;19934;-81
2022/03/31 20:05:24;;;;;;;;;;;4.00;83.70;;;;;;4970145;28;19926;-80
2022/03/31 20:07:53;;;;;;;;;;;2.60;84.30;;;;;;4985473;28;19922;-81
2022/03/31 20:10:22;;;;;;;;;;;4.80;85.20;;;;;;4953155;28;20371;-80
2022/03/31 20:12:58;;;;;;;;;;;3.90;85.70;;;;;;5006826;23;19929;-93
2022/03/31 20:16:01;;;;;;;;;;;3.90;85.70;;;;;;4942727;28;19930;-80
2022/03/31 20:18:35;;;;;;;;;;;3.90;86.40;;;;;;4961721;28;19935;-81
2022/03/31 20:21:03;;;;;;;;;;;3.80;86.10;;;;;;4964326;28;19930;-79
2022/03/31 20:23:32;;;;;;;;;;;3.80;87.00;;;;;;4951514;28;19926;-81
2022/03/31 20:26:01;;;;;;;;;;;3.80;87.30;;;;;;4934258;28;19931;-80
2022/03/31 20:28:33;;;;;;;;;;;3.80;87.50;;;;;;4949230;29;19933;-83
2022/03/31 20:31:02;;;;;;;;;;;3.70;87.60;;;;;;4968589;28;19927;-80
2022/03/31 20:33:30;;;;;;;;;;;3.70;87.30;;;;;;4950350;29;20415;-84
2022/03/31 20:35:58;;;;;;;;;;;3.80;89.00;;;;;;4951726;29;19931;-85
2022/03/31 20:38:27;;;;;;;;;;;3.80;87.70;;;;;;4948398;29;19931;-77
2022/03/31 20:40:55;;;;;;;;;;;3.80;88.10;;;;;;4965222;28;19930;-78
2022/03/31 20:43:23;;;;;;;;;;;3.80;88.20;;;;;;4966458;28;19937;-80
2022/03/31 20:45:51;;;;;;;;;;;3.80;87.90;;;;;;4966214;28;19941;-80
2022/03/31 20:48:20;;;;;;;;;;;3.70;89.40;;;;;;4948055;28;19926;-79
2022/03/31 20:50:48;;;;;;;;;;;3.70;88.20;;;;;;4949889;28;19926;-78
2022/03/31 20:53:18;;;;;;;;;;;3.80;88.80;;;;;;4933789;28;19930;-81
2022/03/31 20:55:46;;;;;;;;;;;3.70;89.30;;;;;;4963641;28;19961;-80
2022/03/31 20:58:13;;;;;;;;;;;3.70;89.50;;;;;;4946712;28;19930;-79
2022/03/31 21:00:41;;;;;;;;;;;3.80;89.60;;;;;;4965909;28;19926;-80
2022/03/31 21:03:10;;;;;;;;;;;4.00;89.80;;;;;;4948068;28;19930;-79
2022/03/31 21:05:39;;;;;;;;;;;3.80;89.70;;;;;;4948292;29;19926;-80
2022/03/31 21:08:07;;;;;;;;;;;3.80;89.70;;;;;;4942328;28;19934;-83
2022/03/31 21:10:35;;;;;;;;;;;2.60;89.90;;;;;;4958665;28;19930;-79
2022/03/31 21:13:03;;;;;;;;;;;3.50;90.10;;;;;;4949262;28;19926;-78
2022/03/31 21:15:31;;;;;;;;;;;3.80;90.40;;;;;;4981552;28;19929;-79
2022/03/31 21:17:59;;;;;;;;;;;3.80;90.60;;;;;;4985662;28;19937;-79
2022/03/31 21:20:28;;;;;;;;;;;3.90;91.30;;;;;;4981214;28;20447;-79
2022/03/31 21:23:02;;;;;;;;;;;3.90;90.90;;;;;;4981910;28;19936;-80
2022/03/31 21:25:31;;;;;;;;;;;3.90;91.20;;;;;;5000881;28;19933;-80
2022/03/31 21:27:59;;;;;;;;;;;3.80;91.20;;;;;;4979742;28;20265;-78
2022/03/31 21:30:30;;;;;;;;;;;4.20;91.60;;;;;;4963119;28;19933;-81
2022/03/31 21:32:59;;;;;;;;;;;3.90;91.90;;;;;;4998227;28;19941;-79
2022/03/31 21:35:27;;;;;;;;;;;3.90;91.80;;;;;;4980457;28;20677;-80
2022/03/31 21:37:55;;;;;;;;;;;3.80;91.80;;;;;;4997367;28;19925;-80
2022/03/31 21:40:23;;;;;;;;;;;3.80;91.80;;;;;;4982284;28;19941;-82
2022/03/31 21:42:51;;;;;;;;;;;3.70;92.20;;;;;;5001169;28;19926;-84
2022/03/31 21:45:19;;;;;;;;;;;3.60;92.90;;;;;;4965783;28;19937;-81
2022/03/31 21:47:47;;;;;;;;;;;2.80;92.70;;;;;;4980971;28;20013;-81
2022/03/31 21:50:15;;;;;;;;;;;3.60;93.50;;;;;;4980046;28;19940;-85
2022/03/31 21:52:43;;;;;;;;;;;3.60;93.40;;;;;;4999055;28;19926;-80
2022/03/31 21:55:13;;;;;;;;;;;3.50;94.30;;;;;;4999150;28;19941;-85
2022/03/31 21:57:42;;;;;;;;;;;3.50;94.20;;;;;;4981118;28;19934;-85
2022/03/31 22:00:27;;;;;;;;;;;3.40;94.70;;;;;;4979610;28;19933;-80
2022/03/31 22:02:55;;;;;;;;;;;3.40;94.20;;;;;;4967526;28;19926;-80
2022/03/31 22:05:24;;;;;;;;;;;3.80;94.40;;;;;;5001636;28;19956;-84
2022/03/31 22:07:51;;;;;;;;;;;3.30;94.60;;;;;;5003720;28;19930;-81
2022/03/31 22:13:06;;;;;;;;;;;3.20;95.00;;;;;;5000221;28;19941;-80
2022/03/31 22:15:35;;;;;;;;;;;3.30;95.30;;;;;;5000365;28;19952;-80
2022/03/31 22:18:04;;;;;;;;;;;3.30;95.20;;;;;;4984202;28;20293;-80
2022/03/31 22:20:32;;;;;;;;;;;3.10;95.70;;;;;;5003130;28;19929;-81
2022/03/31 22:23:00;;;;;;;;;;;3.00;96.00;;;;;;4984496;28;19936;-80
2022/03/31 22:25:27;;;;;;;;;;;3.00;96.70;;;;;;4982681;28;19937;-79
2022/03/31 22:27:55;;;;;;;;;;;3.00;97.60;;;;;;5001969;28;20399;-81
2022/03/31 22:30:23;;;;;;;;;;;3.40;97.80;;;;;;5001538;28;19936;-82
2022/03/31 22:32:50;;;;;;;;;;;3.30;98.00;;;;;;4982888;28;19941;-84
2022/03/31 22:35:19;;;;;;;;;;;3.00;98.10;;;;;;4999949;28;19930;-82
2022/03/31 22:37:47;;;;;;;;;;;2.80;98.20;;;;;;4975712;28;19957;-80
2022/03/31 22:40:14;;;;;;;;;;;2.80;98.60;;;;;;4972132;28;19949;-81
2022/03/31 22:42:42;;;;;;;;;;;2.80;98.60;;;;;;5003379;28;20212;-82
2022/03/31 22:45:11;;;;;;;;;;;2.80;99.20;;;;;;5005044;28;19926;-81
2022/03/31 22:47:39;;;;;;;;;;;2.80;98.80;;;;;;4995541;28;20042;-82
2022/03/31 22:50:07;;;;;;;;;;;2.70;99.00;;;;;;4997903;28;19930;-83
2022/03/31 22:52:35;;;;;;;;;;;2.80;99.20;;;;;;5017531;28;20270;-83
2022/03/31 22:55:06;;;;;;;;;;;2.70;99.40;;;;;;5010564;28;19930;-80
2022/03/31 22:57:33;;;;;;;;;;;2.70;99.30;;;;;;4972973;28;19937;-81
2022/03/31 23:00:01;;;;;;;;;;;2.70;99.90;;;;;;4989006;28;19937;-82
2022/03/31 23:02:31;;;;;;;;;;;2.70;99.80;;;;;;5007778;28;19952;-81
2022/03/31 23:05:00;;;;;;;;;;;2.70;99.90;;;;;;4988146;28;19937;-84
2022/03/31 23:07:28;;;;;;;;;;;2.70;99.90;;;;;;4975547;28;19926;-82
2022/03/31 23:09:56;;;;;;;;;;;2.60;99.90;;;;;;4999681;28;19933;-85
2022/03/31 23:12:23;;;;;;;;;;;2.60;99.90;;;;;;5008901;28;19926;-85
2022/03/31 23:14:51;;;;;;;;;;;2.60;99.90;;;;;;4971251;28;20210;-79
2022/03/31 23:17:20;;;;;;;;;;;2.60;99.90;;;;;;4989607;28;19933;-79
2022/03/31 23:19:48;;;;;;;;;;;1.00;99.90;;;;;;4955309;28;20088;-79
2022/03/31 23:22:16;;;;;;;;;;;2.60;99.90;;;;;;4987071;28;19927;-84
2022/03/31 23:24:45;;;;;;;;;;;2.60;99.90;;;;;;4971471;28;19926;-84
2022/03/31 23:27:13;;;;;;;;;;;2.60;99.90;;;;;;4968186;28;20615;-79
2022/03/31 23:29:41;;;;;;;;;;;2.80;99.90;;;;;;4953684;29;20383;-85
2022/03/31 23:32:10;;;;;;;;;;;2.50;99.90;;;;;;5000442;28;19926;-81
2022/03/31 23:34:39;;;;;;;;;;;2.60;99.90;;;;;;4971113;28;19932;-84
2022/03/31 23:37:07;;;;;;;;;;;2.60;99.90;;;;;;4972967;28;19930;-80
2022/03/31 23:39:35;;;;;;;;;;;2.80;99.90;;;;;;4974908;28;20159;-80
2022/03/31 23:42:02;;;;;;;;;;;2.50;99.90;;;;;;4974226;28;19926;-82
2022/03/31 23:44:30;;;;;;;;;;;4.10;99.90;;;;;;4992614;28;20262;-80
2022/03/31 23:46:58;;;;;;;;;;;2.40;99.90;;;;;;4977657;28;19932;-80
2022/03/31 23:49:26;;;;;;;;;;;2.40;99.90;;;;;;4975824;28;19930;-83
2022/03/31 23:51:54;;;;;;;;;;;2.40;99.90;;;;;;4992635;28;19926;-84
2022/03/31 23:54:21;;;;;;;;;;;2.50;99.90;;;;;;4991340;28;19929;-84
2022/03/31 23:56:50;;;;;;;;;;;2.40;99.90;;;;;;4979140;28;19926;-81
2022/03/31 23:59:17;;;;;;;;;;;2.30;99.90;;;;;;4972866;28;19937;-82
